Terminal Aerodrome Forecast
Issued by NWS

Home | Current Version | Previous Version | Text Only | Print | Product List | Glossary On
Versions: 1 2 3 4 5 6 7 8 9 10 11 12 13 14 15 16 17 18 19
000
FTUS42 KTBW 050540
TAFPIE
TAF
KPIE 050540Z 0506/0606 12004KT P6SM FEW035 BKN250
     FM051500 08007KT P6SM SCT030 BKN250
     FM051900 30007KT P6SM VCTS SCT035CB BKN250
     FM060000 36005KT P6SM BKN040 BKN250
     FM060300 07002KT P6SM FEW040 BKN250=

USA.gov is the U.S. government's official web portal to all federal, state and local government web resources and services.